In Rescue
 
Open Full Screen Window  High Contrast Mode
Wind Gusting 00 knots
07
April 02, 2020 11:57 PM CDT
Present Weather: Rain
Weather Information
Wind Direction
  200 °
Wind Speed
  07 kt (8 mph)
Wind Gust
  00 kt (0 mph)
Altimeter
29.98 in
Visibility
7 SM
Temperature
11° C
52° F
Dewpoint
10° C
50° F
Humidity
94%
1hr Rain Fall
00.00 in.
24hr Rain Fall
00.01 in.
Sky Condition
Overcast @ 5,500 ft
Broken @ 2,400 ft
Broken @ 1,800 ft
MVFR

METAR KAUM 030457Z AUTO 20007KT 7SM RA BKN018 BKN024 OVC055 11/10 A2998 RMK AO2

FAA Disclaimer: The data displayed is for advisory purposes only and is not to be used for flight planning or operations.